Hauptseite
METAR-TAF:

METAR-TAF

Flughäfen :

Touggourt, Algerien

Breite: 33-07N, Länge: 006-08E, Höhe: 85 m

Beobachtung

Neuester Wetterbericht von vor 18 Minuten, um 22:00 UTC
Wind 5 kt aus Ost/Nordost
Temperatur 19°C
Luftfeuchtigkeit 40%
Luftdruck 1020 hPa
Sichtweite 10 km oder mehr
keine Wolken unter 1500 m und keine Kumulonimbus oder Gewitterwolken

METAR: DAUK 082200Z 07005KT CAVOK 19/05 Q1020

Zeit: 23:18 (22:18 UTC)

Prognose

Neuester Wetterbericht von vor 2 Stunden und 18 Minuten, um 20:00 UTC
Gültige Prognose vom 08 um 21 UTC bis 09 um 06 UTC
Wind 8 kt aus Ost/Nordost
Sichtweite 10 km oder mehr
keine Wolken unter 1500 m und keine Kumulonimbus oder Gewitterwolken

TAF: DAUK 082000Z 0821/0906 06008KT CAVOK

Wetterbeobachtungen und Prognosen von mehr als 4000 Flughäfen (METAR und TAF Bericht).

Die verfügbaren Stationen werden durch gelbe und rote Markierungen auf der Karte dargestellt.

Führen Sie die Maus auf sie, um den Namen der Station zu sehen.

Darauf klicken, um die Beobachtung von Wetterbeobachtungen und Prognosen zu sehen.

Um die Karte zu ändern : klicken Sie auf den grünen Tasten mit einem schwarzen Kreuz Zum Vergrößern, auf den grünen Button mit einem Gedankenstrich zu verkleinern, oder auf die grünen Pfeile für benachbarte Karten.


METAR-TAF: